createdAt,value
2022-12-31T00:00:01.042Z,98158.44
2022-12-31T00:01:03.381Z,98158.44
2022-12-31T00:02:04.742Z,98157.91
2022-12-31T00:03:06.645Z,98162.03
2022-12-31T00:04:07.954Z,98161.03
2022-12-31T00:05:09.343Z,98165.91
2022-12-31T00:06:13.659Z,98163.56
2022-12-31T00:07:14.885Z,98172.47
2022-12-31T00:08:16.097Z,98167.91
2022-12-31T00:09:17.355Z,98172.91
2022-12-31T00:10:18.684Z,98177.91
2022-12-31T00:11:20.303Z,98174.16
2022-12-31T00:12:22.470Z,98173.34
2022-12-31T00:13:23.687Z,98177.91
2022-12-31T00:14:24.886Z,98170.03
2022-12-31T00:15:26.160Z,98177.81
2022-12-31T00:16:29.047Z,98177.81
2022-12-31T00:17:30.416Z,98172.84
2022-12-31T00:18:31.731Z,98186.16
2022-12-31T00:19:35.560Z,98181.13
2022-12-31T00:20:40.833Z,98178.16
2022-12-31T00:21:43.124Z,98187.25
2022-12-31T00:22:44.387Z,98180.97
2022-12-31T00:23:45.702Z,98178.31
2022-12-31T00:24:47.184Z,98184.28
2022-12-31T00:25:48.422Z,98180.81
2022-12-31T00:26:49.666Z,98188.81
2022-12-31T00:27:50.942Z,98186.47
2022-12-31T00:28:53.423Z,98192.44
2022-12-31T00:29:57.198Z,98195.56
2022-12-31T00:31:12.719Z,98197.00
2022-12-31T00:32:13.964Z,98197.78
2022-12-31T00:33:15.169Z,98209.66
2022-12-31T00:34:16.352Z,98204.66
2022-12-31T00:35:17.708Z,98194.34
2022-12-31T00:36:20.990Z,98202.00
2022-12-31T00:37:22.472Z,98203.88
2022-12-31T00:38:23.783Z,98203.44
2022-12-31T00:39:25.081Z,98209.06
2022-12-31T00:40:28.352Z,98202.06
2022-12-31T00:41:29.752Z,98205.38
2022-12-31T00:42:31.018Z,98206.03
2022-12-31T00:43:32.606Z,98208.03
2022-12-31T00:44:33.923Z,98206.34
2022-12-31T00:45:35.140Z,98205.09
2022-12-31T00:47:36.680Z,98208.09
2022-12-31T00:48:38.561Z,98209.66
2022-12-31T00:49:39.917Z,98210.00
2022-12-31T00:50:41.171Z,98206.75
2022-12-31T00:51:42.474Z,98199.66
2022-12-31T00:52:43.856Z,98213.41
2022-12-31T00:53:45.210Z,98213.56
2022-12-31T00:54:46.529Z,98214.97
2022-12-31T00:55:48.435Z,98211.53
2022-12-31T00:56:49.710Z,98218.41
2022-12-31T00:57:51.007Z,98218.41
2022-12-31T00:58:52.387Z,98231.56
2022-12-31T00:59:53.671Z,98229.31
2022-12-31T01:00:54.971Z,98222.38
2022-12-31T01:01:56.287Z,98236.59
2022-12-31T01:02:57.680Z,98237.25
2022-12-31T01:04:01.650Z,98235.38
2022-12-31T01:05:02.988Z,98230.25
2022-12-31T01:06:04.603Z,98237.44
2022-12-31T01:07:05.952Z,98235.09
2022-12-31T01:08:07.224Z,98243.22
2022-12-31T01:09:08.921Z,98241.53
2022-12-31T01:10:10.521Z,98241.88
2022-12-31T01:11:12.445Z,98232.13
2022-12-31T01:12:13.772Z,98248.00
2022-12-31T01:13:15.026Z,98246.78
2022-12-31T01:14:17.511Z,98247.44
2022-12-31T01:15:18.764Z,98252.31
2022-12-31T01:16:21.307Z,98249.19
2022-12-31T01:17:22.750Z,98248.22
2022-12-31T01:18:24.004Z,98250.09
2022-12-31T01:19:26.573Z,98254.34
2022-12-31T01:20:27.841Z,98254.13
2022-12-31T01:21:29.316Z,98259.56
2022-12-31T01:22:30.534Z,98255.81
2022-12-31T01:23:31.935Z,98258.97
2022-12-31T01:24:33.195Z,98266.75
2022-12-31T01:25:35.004Z,98265.84
2022-12-31T01:26:36.437Z,98276.66
2022-12-31T01:27:37.800Z,98286.41
2022-12-31T01:28:39.264Z,98275.31
2022-12-31T01:29:40.501Z,98280.44
2022-12-31T01:30:41.978Z,98278.03
2022-12-31T01:31:43.334Z,98281.97
2022-12-31T01:32:44.528Z,98285.06
2022-12-31T01:33:46.176Z,98282.72
2022-12-31T01:34:47.494Z,98290.59
2022-12-31T01:35:48.951Z,98296.25
2022-12-31T01:36:50.194Z,98292.19
2022-12-31T01:37:53.408Z,98296.84
2022-12-31T01:38:55.550Z,98302.03
2022-12-31T01:39:56.834Z,98301.72
2022-12-31T01:40:58.106Z,98299.53
2022-12-31T01:41:59.443Z,98296.25
2022-12-31T01:43:00.737Z,98297.19
2022-12-31T01:44:01.966Z,98287.97
2022-12-31T01:45:03.323Z,98290.63
2022-12-31T01:46:04.779Z,98294.97
2022-12-31T01:47:12.368Z,98289.41
2022-12-31T01:48:15.203Z,98300.38
2022-12-31T01:49:22.153Z,98292.25
2022-12-31T01:50:32.069Z,98294.34
2022-12-31T01:51:34.776Z,98293.22
2022-12-31T01:52:39.826Z,98289.97
2022-12-31T01:53:41.218Z,98293.88
2022-12-31T01:54:44.565Z,98294.97
2022-12-31T01:55:48.763Z,98290.19
2022-12-31T01:56:51.579Z,98298.66
2022-12-31T01:57:56.142Z,98296.31
2022-12-31T01:58:57.998Z,98293.81
2022-12-31T02:00:00.489Z,98300.88
2022-12-31T02:01:03.162Z,98296.97
2022-12-31T02:02:05.106Z,98303.28
2022-12-31T02:03:07.325Z,98293.59
2022-12-31T02:04:10.924Z,98305.78
2022-12-31T02:05:18.134Z,98304.25
2022-12-31T02:06:28.235Z,98301.56
2022-12-31T02:07:29.504Z,98295.94
2022-12-31T02:08:30.906Z,98306.09
2022-12-31T02:09:33.409Z,98303.91
2022-12-31T02:10:35.539Z,98302.84
2022-12-31T02:11:36.766Z,98306.16
2022-12-31T02:12:38.383Z,98296.16
2022-12-31T02:13:39.642Z,98293.81
2022-12-31T02:14:43.041Z,98305.44
2022-12-31T02:15:55.991Z,98301.06
2022-12-31T02:17:19.522Z,98298.91
2022-12-31T02:18:28.214Z,98298.09
2022-12-31T02:19:38.464Z,98302.97
2022-12-31T02:20:39.861Z,98300.78
2022-12-31T02:21:47.425Z,98297.66
2022-12-31T02:23:07.670Z,98296.53
2022-12-31T02:24:29.216Z,98300.91
2022-12-31T02:25:41.006Z,98300.00
2022-12-31T02:26:48.996Z,98297.22
2022-12-31T02:27:54.627Z,98305.19
2022-12-31T02:29:14.919Z,98305.19
2022-12-31T02:30:19.975Z,98302.19
2022-12-31T02:31:25.944Z,98305.78
2022-12-31T02:32:36.488Z,98309.06
2022-12-31T02:33:53.071Z,98309.41
2022-12-31T02:34:56.824Z,98313.28
2022-12-31T02:36:12.451Z,98307.34
2022-12-31T02:37:17.739Z,98313.44
2022-12-31T02:38:25.106Z,98309.50
2022-12-31T02:39:26.799Z,98309.97
2022-12-31T02:40:28.151Z,98314.50
2022-12-31T02:41:29.408Z,98319.06
2022-12-31T02:42:30.629Z,98313.72
2022-12-31T02:43:31.871Z,98316.41
2022-12-31T02:44:34.407Z,98310.75
2022-12-31T02:45:40.895Z,98308.22
2022-12-31T02:46:48.878Z,98300.25
2022-12-31T02:47:58.044Z,98298.38
2022-12-31T02:49:06.065Z,98300.09
2022-12-31T02:50:19.290Z,98298.84
2022-12-31T02:51:23.651Z,98292.31
2022-12-31T02:52:34.035Z,98303.25
2022-12-31T02:53:38.235Z,98296.06
2022-12-31T02:55:12.145Z,98298.25
2022-12-31T02:56:26.823Z,98299.53
2022-12-31T02:57:28.024Z,98304.38
2022-12-31T02:58:33.649Z,98300.81
2022-12-31T02:59:39.624Z,98299.41
2022-12-31T03:00:45.051Z,98300.50
2022-12-31T03:01:48.136Z,98304.53
2022-12-31T03:02:51.358Z,98298.91
2022-12-31T03:03:52.771Z,98302.66
2022-12-31T03:04:57.157Z,98307.66
2022-12-31T03:05:58.756Z,98301.56
2022-12-31T03:07:01.737Z,98297.47
2022-12-31T03:08:03.052Z,98304.22
2022-12-31T03:09:04.258Z,98297.47
2022-12-31T03:10:05.908Z,98298.59
2022-12-31T03:11:07.202Z,98296.69
2022-12-31T03:12:09.967Z,98293.72
2022-12-31T03:13:11.447Z,98294.97
2022-12-31T03:14:12.701Z,98302.47
2022-12-31T03:15:16.945Z,98296.38
2022-12-31T03:16:18.298Z,98300.59
2022-12-31T03:17:19.544Z,98301.06
2022-12-31T03:18:20.820Z,98299.78
2022-12-31T03:19:22.050Z,98300.44
2022-12-31T03:20:26.408Z,98304.66
2022-12-31T03:21:27.677Z,98302.28
2022-12-31T03:22:28.963Z,98299.19
2022-12-31T03:23:32.079Z,98297.28
2022-12-31T03:24:33.364Z,98299.31
2022-12-31T03:25:34.739Z,98296.34
2022-12-31T03:26:36.006Z,98304.13
2022-12-31T03:27:37.234Z,98299.41
2022-12-31T03:28:39.817Z,98298.25
2022-12-31T03:29:41.044Z,98308.13
2022-12-31T03:30:43.330Z,98307.59
2022-12-31T03:31:44.700Z,98309.97
2022-12-31T03:32:46.804Z,98304.94
2022-12-31T03:33:48.004Z,98303.38
2022-12-31T03:34:49.309Z,98310.59
2022-12-31T03:35:50.962Z,98309.38
2022-12-31T03:36:52.187Z,98314.22
2022-12-31T03:37:53.832Z,98314.06
2022-12-31T03:38:55.050Z,98320.22
2022-12-31T03:39:56.352Z,98318.63
2022-12-31T03:40:57.660Z,98323.31
2022-12-31T03:41:59.933Z,98324.56
2022-12-31T03:43:01.194Z,98325.41
2022-12-31T03:44:02.444Z,98328.66
2022-12-31T03:45:04.159Z,98331.31
2022-12-31T03:46:05.492Z,98327.69
2022-12-31T03:47:06.839Z,98330.69
2022-12-31T03:48:09.207Z,98326.59
2022-12-31T03:49:10.420Z,98327.41
2022-12-31T03:50:12.827Z,98326.28
2022-12-31T03:51:14.064Z,98328.28
2022-12-31T03:52:15.345Z,98339.72
2022-12-31T03:53:17.057Z,98344.53
2022-12-31T03:54:18.356Z,98346.53
2022-12-31T03:55:19.639Z,98326.94
2022-12-31T03:56:20.855Z,98331.91
2022-12-31T03:57:22.721Z,98325.69
2022-12-31T03:58:23.984Z,98335.22
2022-12-31T03:59:25.260Z,98335.09
2022-12-31T04:00:26.522Z,98332.09
2022-12-31T04:01:27.886Z,98331.00
2022-12-31T04:02:29.716Z,98330.81
2022-12-31T04:03:31.126Z,98325.78
2022-12-31T04:04:32.493Z,98333.91
2022-12-31T04:05:33.787Z,98323.75
2022-12-31T04:06:35.057Z,98325.59
2022-12-31T04:07:36.656Z,98327.75
2022-12-31T04:08:37.909Z,98326.88
2022-12-31T04:09:39.117Z,98326.78
2022-12-31T04:10:40.318Z,98327.03
2022-12-31T04:11:41.533Z,98336.25
2022-12-31T04:12:43.108Z,98332.16
2022-12-31T04:13:44.361Z,98334.16
2022-12-31T04:14:45.636Z,98336.06
2022-12-31T04:15:49.327Z,98335.94
2022-12-31T04:16:51.095Z,98334.59
2022-12-31T04:17:52.442Z,98328.31
2022-12-31T04:18:54.347Z,98335.53
2022-12-31T04:19:55.565Z,98333.63
2022-12-31T04:21:01.325Z,98331.75
2022-12-31T04:22:02.583Z,98322.75
2022-12-31T04:23:03.856Z,98329.00
2022-12-31T04:24:05.259Z,98326.13
2022-12-31T04:25:07.628Z,98325.03
2022-12-31T04:26:08.878Z,98335.69
2022-12-31T04:27:11.258Z,98325.91
2022-12-31T04:28:12.494Z,98331.25
2022-12-31T04:29:13.704Z,98330.81
2022-12-31T04:30:15.029Z,98322.75
2022-12-31T04:31:16.253Z,98328.72
2022-12-31T04:32:17.473Z,98329.25
2022-12-31T04:33:18.781Z,98333.91
2022-12-31T04:34:20.109Z,98329.38
2022-12-31T04:35:21.381Z,98333.16
2022-12-31T04:36:22.661Z,98332.94
2022-12-31T04:37:23.914Z,98333.28
2022-12-31T04:38:25.172Z,98334.25
2022-12-31T04:39:26.933Z,98336.16
2022-12-31T04:40:28.161Z,98331.25
2022-12-31T04:41:29.484Z,98330.75
2022-12-31T04:42:30.772Z,98334.81
2022-12-31T04:43:31.999Z,98341.84
2022-12-31T04:44:33.266Z,98339.50
2022-12-31T04:45:34.556Z,98343.25
2022-12-31T04:46:35.811Z,98346.06
2022-12-31T04:47:37.022Z,98348.94
2022-12-31T04:48:38.447Z,98352.72
2022-12-31T04:49:39.669Z,98349.63
2022-12-31T04:50:40.858Z,98351.47
2022-12-31T04:51:42.102Z,98351.47
2022-12-31T04:52:43.309Z,98349.63
2022-12-31T04:53:44.686Z,98358.81
2022-12-31T04:54:45.951Z,98355.38
2022-12-31T04:55:47.201Z,98364.50
2022-12-31T04:56:48.404Z,98363.38
2022-12-31T04:57:49.718Z,98364.81
2022-12-31T04:58:51.030Z,98365.28
2022-12-31T04:59:52.258Z,98364.53
2022-12-31T05:00:53.539Z,98371.53
2022-12-31T05:01:54.873Z,98362.41
2022-12-31T05:02:56.301Z,98368.44
2022-12-31T05:03:57.661Z,98370.00
2022-12-31T05:04:58.922Z,98365.00
2022-12-31T05:06:01.274Z,98371.00
2022-12-31T05:07:02.599Z,98370.34
2022-12-31T05:08:03.889Z,98363.44
2022-12-31T05:09:05.128Z,98373.69
2022-12-31T05:10:06.656Z,98370.22
2022-12-31T05:11:08.048Z,98376.66
2022-12-31T05:12:10.760Z,98372.00
2022-12-31T05:13:12.515Z,98373.88
2022-12-31T05:14:13.750Z,98379.78
2022-12-31T05:15:15.036Z,98379.31
2022-12-31T05:16:16.432Z,98378.41
2022-12-31T05:17:17.819Z,98376.88
2022-12-31T05:18:19.379Z,98377.53
2022-12-31T05:19:20.640Z,98382.06
2022-12-31T05:20:21.895Z,98372.66
2022-12-31T05:21:23.209Z,98372.78
2022-12-31T05:22:24.469Z,98382.66
2022-12-31T05:23:26.034Z,98378.22
2022-12-31T05:24:27.324Z,98384.22
2022-12-31T05:25:28.600Z,98390.69
2022-12-31T05:26:29.845Z,98388.31
2022-12-31T05:27:31.220Z,98387.03
2022-12-31T05:28:32.761Z,98389.56
2022-12-31T05:29:34.036Z,98380.78
2022-12-31T05:30:35.424Z,98384.00
2022-12-31T05:31:36.722Z,98382.47
2022-12-31T05:32:37.953Z,98381.47
2022-12-31T05:33:39.211Z,98379.16
2022-12-31T05:34:40.523Z,98370.69
2022-12-31T05:35:41.754Z,98375.59
2022-12-31T05:36:42.957Z,98370.13
2022-12-31T05:37:44.648Z,98380.66
2022-12-31T05:38:45.950Z,98367.94
2022-12-31T05:39:47.160Z,98375.81
2022-12-31T05:40:48.474Z,98379.59
2022-12-31T05:41:49.723Z,98374.72
2022-12-31T05:42:50.952Z,98386.63
2022-12-31T05:43:52.230Z,98385.06
2022-12-31T05:44:53.593Z,98388.28
2022-12-31T05:45:54.892Z,98385.06
2022-12-31T05:46:56.209Z,98392.28
2022-12-31T05:47:57.460Z,98389.16
2022-12-31T05:48:58.719Z,98389.38
2022-12-31T05:50:00.003Z,98393.28
2022-12-31T05:51:01.449Z,98390.28
2022-12-31T05:52:02.689Z,98399.53
2022-12-31T05:53:03.959Z,98389.28
2022-12-31T05:54:05.243Z,98398.75
2022-12-31T05:55:06.614Z,98389.94
2022-12-31T05:56:07.896Z,98393.72
2022-12-31T05:57:09.298Z,98401.19
2022-12-31T05:58:10.567Z,98405.41
2022-12-31T05:59:12.165Z,98406.06
2022-12-31T06:00:13.888Z,98403.41
2022-12-31T06:01:15.133Z,98407.41
2022-12-31T06:02:16.469Z,98405.34
2022-12-31T06:03:17.829Z,98414.31
2022-12-31T06:04:19.113Z,98417.00
2022-12-31T06:05:25.863Z,98407.31
2022-12-31T06:06:27.591Z,98401.97
2022-12-31T06:07:29.028Z,98411.75
2022-12-31T06:08:30.265Z,98407.44
2022-12-31T06:09:31.506Z,98416.88
2022-12-31T06:10:32.743Z,98414.22
2022-12-31T06:11:34.080Z,98413.84
2022-12-31T06:12:35.302Z,98418.84
2022-12-31T06:13:36.523Z,98416.50
2022-12-31T06:14:43.769Z,98418.84
2022-12-31T06:15:46.836Z,98423.25
2022-12-31T06:16:48.065Z,98421.03
2022-12-31T06:17:49.319Z,98429.34
2022-12-31T06:18:50.758Z,98413.34
2022-12-31T06:19:51.988Z,98424.63
2022-12-31T06:20:53.264Z,98425.50
2022-12-31T06:21:54.533Z,98425.50
2022-12-31T06:22:55.757Z,98421.72
2022-12-31T06:23:57.082Z,98425.84
2022-12-31T06:24:59.013Z,98423.63
2022-12-31T06:26:03.698Z,98433.09
2022-12-31T06:27:04.944Z,98432.53
2022-12-31T06:28:06.197Z,98437.19
2022-12-31T06:29:08.199Z,98430.63
2022-12-31T06:30:09.900Z,98432.19
2022-12-31T06:31:12.841Z,98443.28
2022-12-31T06:32:14.135Z,98434.63
2022-12-31T06:33:15.408Z,98438.72
2022-12-31T06:34:16.673Z,98436.75
2022-12-31T06:35:17.942Z,98443.63
2022-12-31T06:36:19.170Z,98444.28
2022-12-31T06:37:20.387Z,98448.72
2022-12-31T06:38:21.635Z,98442.59
2022-12-31T06:39:22.913Z,98442.47
2022-12-31T06:40:24.225Z,98451.56
2022-12-31T06:41:25.480Z,98455.34
2022-12-31T06:42:30.248Z,98444.69
2022-12-31T06:43:31.533Z,98434.00
2022-12-31T06:44:32.849Z,98431.69
2022-12-31T06:45:34.153Z,98435.25
2022-12-31T06:46:35.545Z,98433.91
2022-12-31T06:47:36.870Z,98433.47
2022-12-31T06:48:38.665Z,98439.13
2022-12-31T06:49:40.601Z,98428.78
2022-12-31T06:50:41.804Z,98434.78
2022-12-31T06:51:43.299Z,98435.69
2022-12-31T06:52:44.556Z,98423.59
2022-12-31T06:53:46.485Z,98431.13
2022-12-31T06:54:47.935Z,98425.91
2022-12-31T06:55:49.643Z,98423.53
2022-12-31T06:56:51.038Z,98430.66
2022-12-31T06:57:52.548Z,98432.09
2022-12-31T06:58:53.905Z,98416.88
2022-12-31T06:59:55.276Z,98425.22
2022-12-31T07:01:05.931Z,98427.09
2022-12-31T07:02:25.957Z,98424.31
2022-12-31T07:03:33.371Z,98429.66
2022-12-31T07:04:48.911Z,98429.31
2022-12-31T07:05:57.521Z,98425.09
2022-12-31T07:07:08.544Z,98422.41
2022-12-31T07:08:25.229Z,98420.19
2022-12-31T07:09:37.984Z,98425.22
2022-12-31T07:10:45.059Z,98426.75
2022-12-31T07:11:58.482Z,98430.97
2022-12-31T07:13:08.928Z,98432.53
2022-12-31T07:14:10.187Z,98430.84
2022-12-31T07:15:14.549Z,98434.78
2022-12-31T07:16:28.127Z,98437.00
2022-12-31T07:17:44.688Z,98443.69
2022-12-31T07:18:48.099Z,98443.75
2022-12-31T07:20:00.519Z,98445.78
2022-12-31T07:21:01.948Z,98442.44
2022-12-31T07:22:03.342Z,98443.00
2022-12-31T07:23:04.691Z,98449.94
2022-12-31T07:24:07.064Z,98448.34
2022-12-31T07:25:12.891Z,98451.47
2022-12-31T07:26:33.016Z,98456.69
2022-12-31T07:27:34.289Z,98452.78
2022-12-31T07:28:50.559Z,98446.66
2022-12-31T07:29:51.784Z,98447.34
2022-12-31T07:31:04.975Z,98446.56
2022-12-31T07:32:27.057Z,98456.00
2022-12-31T07:33:37.231Z,98442.44
2022-12-31T07:34:48.269Z,98454.22
2022-12-31T07:36:02.064Z,98448.75
2022-12-31T07:37:08.087Z,98457.53
2022-12-31T07:38:18.036Z,98446.22
2022-12-31T07:39:20.670Z,98452.47
2022-12-31T07:40:24.705Z,98461.25
2022-12-31T07:41:38.105Z,98449.94
2022-12-31T07:42:49.663Z,98452.47
2022-12-31T07:44:03.222Z,98460.13
2022-12-31T07:45:16.713Z,98459.03
2022-12-31T07:46:38.918Z,98463.50
2022-12-31T07:47:57.461Z,98454.25
2022-12-31T07:49:13.080Z,98454.06
2022-12-31T07:50:15.591Z,98451.41
2022-12-31T07:51:17.014Z,98449.81
2022-12-31T07:52:18.798Z,98452.00
2022-12-31T07:53:20.435Z,98462.44
2022-12-31T07:54:21.715Z,98462.09
2022-12-31T07:55:23.310Z,98460.88
2022-12-31T07:56:29.188Z,98459.66
2022-12-31T07:57:33.529Z,98457.41
2022-12-31T07:58:40.793Z,98462.09
2022-12-31T07:59:58.356Z,98468.56
2022-12-31T08:01:02.818Z,98462.31
2022-12-31T08:02:12.611Z,98477.22
2022-12-31T08:03:37.830Z,98468.56
2022-12-31T08:05:06.059Z,98480.03
2022-12-31T08:06:11.877Z,98475.47
2022-12-31T08:07:19.306Z,98481.03
2022-12-31T08:08:30.597Z,98487.59
2022-12-31T08:09:31.915Z,98486.41
2022-12-31T08:10:45.028Z,98485.84
2022-12-31T08:11:57.408Z,98485.19
2022-12-31T08:13:05.028Z,98485.19
2022-12-31T08:14:09.408Z,98488.50
2022-12-31T08:15:14.799Z,98494.97
2022-12-31T08:16:16.585Z,98494.31
2022-12-31T08:17:18.670Z,98497.00
2022-12-31T08:18:20.015Z,98488.19
2022-12-31T08:19:25.793Z,98486.09
2022-12-31T08:20:27.982Z,98498.53
2022-12-31T08:21:41.347Z,98494.44
2022-12-31T08:22:51.549Z,98494.09
2022-12-31T08:23:58.581Z,98496.91
2022-12-31T08:25:13.112Z,98486.09
2022-12-31T08:26:22.490Z,98493.19
2022-12-31T08:27:29.241Z,98491.75
2022-12-31T08:28:37.663Z,98496.09
2022-12-31T08:29:50.749Z,98501.22
2022-12-31T08:31:01.623Z,98496.00
2022-12-31T08:32:05.876Z,98488.66
2022-12-31T08:33:10.231Z,98491.09
2022-12-31T08:34:17.766Z,98492.78
2022-12-31T08:35:26.374Z,98497.66
2022-12-31T08:36:41.654Z,98494.00
2022-12-31T08:38:03.258Z,98490.97
2022-12-31T08:39:25.166Z,98504.69
2022-12-31T08:40:46.675Z,98499.00
2022-12-31T08:41:49.502Z,98511.25
2022-12-31T08:43:09.775Z,98510.38
2022-12-31T08:44:17.744Z,98512.56
2022-12-31T08:45:27.979Z,98514.25
2022-12-31T08:46:33.004Z,98517.91
2022-12-31T08:47:53.833Z,98523.38
2022-12-31T08:48:57.817Z,98522.03
2022-12-31T08:49:59.221Z,98529.19
2022-12-31T08:51:00.669Z,98530.19
2022-12-31T08:52:02.370Z,98534.19
2022-12-31T08:53:03.820Z,98539.88
2022-12-31T08:54:05.213Z,98535.19
2022-12-31T08:55:06.762Z,98537.22
2022-12-31T08:56:13.167Z,98544.31
2022-12-31T08:57:14.406Z,98545.75
2022-12-31T08:58:28.605Z,98548.44
2022-12-31T08:59:38.725Z,98547.00
2022-12-31T09:00:40.511Z,98554.22
2022-12-31T09:01:55.830Z,98553.00
2022-12-31T09:03:18.961Z,98548.91
2022-12-31T09:04:25.633Z,98538.63
2022-12-31T09:05:34.471Z,98537.88
2022-12-31T09:06:37.841Z,98538.22
2022-12-31T09:07:40.578Z,98533.19
2022-12-31T09:08:54.839Z,98533.84
2022-12-31T09:10:16.654Z,98533.50
2022-12-31T09:11:36.924Z,98541.19
2022-12-31T09:12:42.593Z,98535.06
2022-12-31T09:14:02.642Z,98535.84
2022-12-31T09:15:12.539Z,98541.44
2022-12-31T09:16:18.922Z,98543.41
2022-12-31T09:17:29.063Z,98544.53
2022-12-31T09:18:33.292Z,98548.34
2022-12-31T09:19:34.795Z,98546.00
2022-12-31T09:20:44.433Z,98544.09
2022-12-31T09:21:46.107Z,98547.44
2022-12-31T09:22:47.449Z,98556.78
2022-12-31T09:23:48.851Z,98542.13
2022-12-31T09:24:51.259Z,98554.34
2022-12-31T09:26:18.842Z,98537.09
2022-12-31T09:27:27.013Z,98530.97
2022-12-31T09:28:52.988Z,98539.88
2022-12-31T09:30:01.336Z,98541.88
2022-12-31T09:31:11.153Z,98537.75
2022-12-31T09:32:19.501Z,98546.56
2022-12-31T09:33:34.264Z,98546.00
2022-12-31T09:34:54.381Z,98546.22
2022-12-31T09:36:01.395Z,98545.09
2022-12-31T09:37:05.556Z,98548.09
2022-12-31T09:38:25.682Z,98548.44
2022-12-31T09:39:40.981Z,98548.91
2022-12-31T09:40:45.197Z,98550.22
2022-12-31T09:41:46.445Z,98547.56
2022-12-31T09:42:58.792Z,98553.69
2022-12-31T09:44:12.509Z,98556.47
2022-12-31T09:45:24.597Z,98553.78
2022-12-31T09:46:25.815Z,98553.78
2022-12-31T09:47:31.984Z,98556.34
2022-12-31T09:48:44.735Z,98557.16
2022-12-31T09:50:03.066Z,98557.25
2022-12-31T09:51:31.077Z,98541.72
2022-12-31T09:52:51.291Z,98544.88
2022-12-31T09:54:01.898Z,98535.47
2022-12-31T09:55:12.351Z,98536.72
2022-12-31T09:56:22.679Z,98533.34
2022-12-31T09:57:30.889Z,98534.13
2022-12-31T09:58:32.197Z,98539.03
2022-12-31T09:59:38.840Z,98537.16
2022-12-31T10:01:03.289Z,98536.78
2022-12-31T10:02:30.746Z,98537.25
2022-12-31T10:03:44.159Z,98541.91
2022-12-31T10:04:45.458Z,98547.38
2022-12-31T10:05:59.803Z,98541.78
2022-12-31T10:07:19.388Z,98540.75
2022-12-31T10:08:23.565Z,98548.75
2022-12-31T10:09:34.351Z,98541.06
2022-12-31T10:10:42.548Z,98536.94
2022-12-31T10:11:59.081Z,98540.50
2022-12-31T10:13:06.361Z,98545.91
2022-12-31T10:14:22.631Z,98539.53
2022-12-31T10:15:47.042Z,98536.03
2022-12-31T10:17:06.496Z,98547.19
2022-12-31T10:18:19.852Z,98529.13
2022-12-31T10:19:39.832Z,98533.00
2022-12-31T10:20:49.247Z,98536.81
2022-12-31T10:21:53.322Z,98534.91
2022-12-31T10:23:14.844Z,98531.00
2022-12-31T10:24:21.792Z,98530.94
2022-12-31T10:25:41.604Z,98531.00
2022-12-31T10:26:54.706Z,98534.50
2022-12-31T10:28:15.047Z,98536.56
2022-12-31T10:29:25.610Z,98537.00
2022-12-31T10:30:32.409Z,98544.34
2022-12-31T10:31:47.560Z,98537.19
2022-12-31T10:32:58.936Z,98544.47
2022-12-31T10:34:12.228Z,98536.84
2022-12-31T10:35:13.511Z,98546.28
2022-12-31T10:36:18.125Z,98535.13
2022-12-31T10:37:21.764Z,98534.00
2022-12-31T10:38:41.144Z,98533.66
2022-12-31T10:39:51.960Z,98523.03
2022-12-31T10:41:02.126Z,98526.34
2022-12-31T10:42:09.360Z,98518.41
2022-12-31T10:43:26.564Z,98523.22
2022-12-31T10:44:49.419Z,98523.56
2022-12-31T10:46:06.733Z,98522.13
2022-12-31T10:47:14.002Z,98523.16
2022-12-31T10:48:33.757Z,98528.16
2022-12-31T10:49:58.512Z,98524.03
2022-12-31T10:51:17.617Z,98520.38
2022-12-31T10:52:22.582Z,98515.88
2022-12-31T10:53:42.673Z,98523.25
2022-12-31T10:55:02.461Z,98516.13
2022-12-31T10:56:06.437Z,98510.78
2022-12-31T10:57:19.801Z,98521.41
2022-12-31T10:58:29.841Z,98511.56
2022-12-31T10:59:42.512Z,98513.19
2022-12-31T11:01:02.624Z,98519.28
2022-12-31T11:02:16.217Z,98516.31
2022-12-31T11:03:29.621Z,98515.38
2022-12-31T11:04:46.970Z,98519.59
2022-12-31T11:05:54.026Z,98521.84
2022-12-31T11:07:01.064Z,98523.84
2022-12-31T11:08:17.698Z,98523.91
2022-12-31T11:09:21.686Z,98518.22
2022-12-31T11:10:25.917Z,98509.38
2022-12-31T11:11:27.115Z,98515.19
2022-12-31T11:12:34.557Z,98520.56
2022-12-31T11:13:41.947Z,98516.75
2022-12-31T11:14:52.875Z,98521.75
2022-12-31T11:16:09.535Z,98521.94
2022-12-31T11:17:24.642Z,98518.13
2022-12-31T11:18:36.121Z,98521.75
2022-12-31T11:19:56.309Z,98515.00
2022-12-31T11:21:08.624Z,98524.91
2022-12-31T11:22:28.361Z,98516.03
2022-12-31T11:23:56.066Z,98523.84
2022-12-31T11:25:06.109Z,98518.66
2022-12-31T11:26:26.326Z,98514.25
2022-12-31T11:27:49.342Z,98513.53
2022-12-31T11:29:03.245Z,98516.81
2022-12-31T11:30:23.234Z,98514.53
2022-12-31T11:31:38.233Z,98509.25
2022-12-31T11:32:45.334Z,98513.44
2022-12-31T11:34:05.746Z,98508.66
2022-12-31T11:35:08.410Z,98499.16
2022-12-31T11:36:17.057Z,98500.34
2022-12-31T11:37:31.024Z,98498.38
2022-12-31T11:38:43.166Z,98500.28
2022-12-31T11:39:59.757Z,98501.06
2022-12-31T11:41:33.300Z,98491.13
2022-12-31T11:42:52.914Z,98501.13
2022-12-31T11:44:04.605Z,98496.13
2022-12-31T11:45:14.138Z,98499.94
2022-12-31T11:46:33.713Z,98492.31
2022-12-31T11:47:41.206Z,98496.28
2022-12-31T11:49:10.727Z,98493.38
2022-12-31T11:50:24.282Z,98495.31
2022-12-31T11:51:25.556Z,98496.06
2022-12-31T11:52:26.832Z,98488.84
2022-12-31T11:53:36.724Z,98483.47
2022-12-31T11:54:47.637Z,98483.09
2022-12-31T11:55:48.892Z,98483.09
2022-12-31T11:57:13.277Z,98489.53
2022-12-31T11:58:15.879Z,98483.66
2022-12-31T11:59:19.648Z,98484.78
2022-12-31T12:00:22.907Z,98476.03
2022-12-31T12:01:34.001Z,98483.66
2022-12-31T12:02:37.630Z,98476.38
2022-12-31T12:03:39.183Z,98478.34
2022-12-31T12:04:40.478Z,98475.47
2022-12-31T12:05:41.975Z,98476.59
2022-12-31T12:06:43.258Z,98480.41
2022-12-31T12:07:44.635Z,98474.34
2022-12-31T12:08:46.986Z,98478.94
2022-12-31T12:09:48.892Z,98481.97
2022-12-31T12:10:56.599Z,98475.81
2022-12-31T12:13:10.696Z,98469.59
2022-12-31T12:14:21.858Z,98466.56
2022-12-31T12:15:30.391Z,98466.28
2022-12-31T12:16:33.710Z,98467.41
2022-12-31T12:17:35.545Z,98474.34
2022-12-31T12:18:45.214Z,98469.41
2022-12-31T12:19:53.114Z,98456.56
2022-12-31T12:21:05.162Z,98462.78
2022-12-31T12:22:13.381Z,98461.50
2022-12-31T12:23:16.667Z,98462.22
2022-12-31T12:24:20.840Z,98457.19
2022-12-31T12:25:23.788Z,98461.38
2022-12-31T12:26:27.409Z,98459.19
2022-12-31T12:27:30.125Z,98458.41
2022-12-31T12:28:44.376Z,98462.22
2022-12-31T12:29:45.981Z,98457.72
2022-12-31T12:30:54.044Z,98454.59
2022-12-31T12:32:15.239Z,98453.13
2022-12-31T12:33:22.538Z,98457.25
2022-12-31T12:34:26.673Z,98460.38
2022-12-31T12:35:32.994Z,98461.09
2022-12-31T12:36:34.518Z,98453.03
2022-12-31T12:37:35.869Z,98459.94
2022-12-31T12:38:37.445Z,98460.63
2022-12-31T12:39:38.967Z,98452.59
2022-12-31T12:40:40.972Z,98453.72
2022-12-31T12:41:42.715Z,98461.00
2022-12-31T12:42:55.205Z,98454.44
2022-12-31T12:44:14.415Z,98449.09
2022-12-31T12:45:18.285Z,98454.09
2022-12-31T12:46:24.613Z,98450.63
2022-12-31T12:47:26.124Z,98437.28
2022-12-31T12:48:38.047Z,98461.22
2022-12-31T12:49:45.701Z,98456.63
2022-12-31T12:50:50.115Z,98451.19
2022-12-31T12:51:51.341Z,98448.44
2022-12-31T12:53:15.934Z,98446.16
2022-12-31T12:54:35.412Z,98448.44